Time;durP1;ratioP1;P1;durP2;ratioP2;P2;SDS_P1;SDS_P2;PMS_P1;PMS_P2;Temp;Humidity;BMP_temperature;BMP_pressure;BME280_temperature;BME280_humidity;BME280_pressure;Samples;Min_cycle;Max_cycle;Signal;HPM_P1;HPM_P2
2022/07/16 00:01:22;;;;;;;5.70;3.00;;;16.00;99.90;;;;;;5007467;28;20037;-68
2022/07/16 00:01:48;;;;;;;6.45;3.53;;;15.90;99.90;;;;;;5007425;28;20033;-67
2022/07/16 00:04:14;;;;;;;5.82;3.13;;;15.90;99.90;;;;;;5010346;28;20091;-69
2022/07/16 00:06:41;;;;;;;8.57;3.08;;;15.90;99.90;;;;;;4999408;28;20067;-69
2022/07/16 00:09:06;;;;;;;8.15;3.15;;;15.80;99.90;;;;;;5008100;28;20042;-69
2022/07/16 00:11:32;;;;;;;7.55;3.70;;;15.80;99.90;;;;;;5007873;28;20030;-69
2022/07/16 00:13:58;;;;;;;7.70;3.60;;;15.80;99.90;;;;;;5010129;28;20116;-70
2022/07/16 00:16:23;;;;;;;5.70;3.50;;;15.70;99.90;;;;;;5019208;28;20404;-69
2022/07/16 00:21:33;;;;;;;7.78;4.07;;;15.60;99.90;;;;;;5023909;28;20486;-70
2022/07/16 00:23:59;;;;;;;6.70;3.90;;;15.60;99.90;;;;;;5011432;28;20037;-69
2022/07/16 00:26:25;;;;;;;9.90;4.10;;;15.60;99.90;;;;;;5005667;28;20421;-70
2022/07/16 00:28:50;;;;;;;7.30;3.80;;;15.60;99.90;;;;;;5007158;28;20033;-69
2022/07/16 00:31:16;;;;;;;7.13;3.88;;;15.60;99.90;;;;;;5011857;28;20041;-69
2022/07/16 00:33:42;;;;;;;7.78;3.55;;;15.60;99.90;;;;;;5010091;28;20037;-69
2022/07/16 00:36:08;;;;;;;7.40;3.33;;;15.60;99.90;;;;;;5008836;28;20033;-69
2022/07/16 00:38:33;;;;;;;8.75;3.60;;;15.60;99.90;;;;;;5009690;28;20049;-69
2022/07/16 00:40:59;;;;;;;7.88;3.80;;;15.70;99.90;;;;;;4997745;28;20373;-70
2022/07/16 00:43:25;;;;;;;6.82;4.20;;;15.70;99.90;;;;;;5003262;28;20031;-70
2022/07/16 00:45:50;;;;;;;9.35;4.70;;;15.70;99.90;;;;;;5016217;28;20494;-69
2022/07/16 00:48:16;;;;;;;6.80;3.80;;;15.60;99.90;;;;;;5009936;28;20123;-69
2022/07/16 00:50:42;;;;;;;8.25;4.13;;;15.60;99.90;;;;;;5005461;28;20042;-70
2022/07/16 00:53:09;;;;;;;6.00;3.20;;;15.50;99.90;;;;;;5006484;28;20037;-69
2022/07/16 00:55:36;;;;;;;7.00;3.70;;;15.50;99.90;;;;;;5010597;28;20033;-70
2022/07/16 00:58:02;;;;;;;7.82;3.55;;;15.40;99.90;;;;;;4987081;28;20173;-69
2022/07/16 01:00:29;;;;;;;8.38;3.70;;;15.40;99.90;;;;;;5006036;28;20112;-69
2022/07/16 01:02:56;;;;;;;6.63;3.20;;;15.30;99.90;;;;;;5021391;28;20034;-69
2022/07/16 01:05:22;;;;;;;5.47;3.15;;;15.30;99.90;;;;;;5014342;28;20139;-69
2022/07/16 01:07:48;;;;;;;6.82;3.25;;;15.40;99.90;;;;;;5012243;28;20041;-69
2022/07/16 01:10:14;;;;;;;7.45;3.30;;;15.30;99.90;;;;;;5006472;28;20037;-70
2022/07/16 01:12:40;;;;;;;7.40;3.35;;;15.30;99.90;;;;;;5025499;28;20042;-69
2022/07/16 01:15:07;;;;;;;7.00;3.50;;;15.30;99.90;;;;;;5016332;28;20033;-69
2022/07/16 01:17:33;;;;;;;6.57;3.22;;;15.40;99.90;;;;;;5014942;28;20030;-70
2022/07/16 01:19:58;;;;;;;6.40;3.03;;;15.40;99.90;;;;;;5008950;28;20511;-69
2022/07/16 01:22:25;;;;;;;8.15;3.20;;;15.40;99.90;;;;;;5017425;28;20041;-69
2022/07/16 01:24:52;;;;;;;5.57;2.90;;;15.40;99.90;;;;;;5020263;28;20042;-69
2022/07/16 01:27:19;;;;;;;5.47;2.53;;;15.40;99.90;;;;;;4983492;28;20026;-69
2022/07/16 01:29:45;;;;;;;4.90;2.70;;;15.50;99.90;;;;;;4991829;28;20377;-69
2022/07/16 01:32:10;;;;;;;6.57;2.60;;;15.60;99.90;;;;;;5012553;28;20049;-69
2022/07/16 01:34:37;;;;;;;6.28;3.03;;;15.60;99.90;;;;;;5010162;28;20087;-70
2022/07/16 01:37:05;;;;;;;5.25;2.80;;;15.60;99.90;;;;;;5020779;28;20053;-69
2022/07/16 01:39:33;;;;;;;5.32;2.70;;;15.60;99.90;;;;;;5009174;28;20042;-69
2022/07/16 01:42:01;;;;;;;5.78;3.03;;;15.50;99.90;;;;;;5005375;28;20037;-69
2022/07/16 01:44:28;;;;;;;5.65;3.22;;;15.40;99.90;;;;;;5014904;28;20030;-69
2022/07/16 01:46:56;;;;;;;4.75;3.03;;;15.40;99.90;;;;;;5008678;28;20057;-69
2022/07/16 01:49:22;;;;;;;7.15;3.38;;;15.30;99.90;;;;;;5010024;28;20029;-68
2022/07/16 01:51:48;;;;;;;7.25;3.22;;;15.30;99.90;;;;;;5014654;28;20061;-68
2022/07/16 01:54:14;;;;;;;7.07;3.08;;;15.20;99.90;;;;;;5012979;28;20578;-69
2022/07/16 01:56:40;;;;;;;5.35;3.33;;;15.20;99.90;;;;;;5012343;28;20056;-68
2022/07/16 01:59:06;;;;;;;5.25;3.00;;;15.10;99.90;;;;;;5022889;28;20107;-69
2022/07/16 02:01:32;;;;;;;5.25;3.20;;;15.10;99.90;;;;;;5020077;28;20033;-69
2022/07/16 02:03:58;;;;;;;5.85;3.50;;;15.00;99.90;;;;;;5008004;28;20038;-68
2022/07/16 02:06:24;;;;;;;7.90;3.47;;;14.90;99.90;;;;;;5017801;28;20099;-69
2022/07/16 02:08:50;;;;;;;7.68;3.53;;;14.80;99.90;;;;;;5008037;28;20036;-68
2022/07/16 02:11:16;;;;;;;5.68;3.00;;;14.80;99.90;;;;;;5012254;28;20038;-68
2022/07/16 02:13:42;;;;;;;4.65;3.17;;;14.90;99.90;;;;;;4992863;28;20121;-69
2022/07/16 02:16:08;;;;;;;5.80;3.40;;;15.00;99.90;;;;;;5009656;28;20036;-68
2022/07/16 02:18:35;;;;;;;6.07;3.85;;;15.00;99.90;;;;;;5010551;28;20026;-69
2022/07/16 02:21:01;;;;;;;6.78;3.40;;;15.10;99.90;;;;;;4992331;28;20037;-68
2022/07/16 02:23:26;;;;;;;6.57;3.22;;;15.10;99.90;;;;;;5020679;28;20038;-68
2022/07/16 02:25:52;;;;;;;5.47;3.13;;;15.20;99.90;;;;;;5008900;28;20092;-68
2022/07/16 02:28:18;;;;;;;6.40;3.10;;;15.30;99.90;;;;;;5008337;28;20037;-68
2022/07/16 02:30:46;;;;;;;6.35;3.15;;;15.40;99.90;;;;;;5022436;28;20046;-68
2022/07/16 02:33:18;;;;;;;4.70;3.17;;;15.50;99.90;;;;;;5015989;28;20033;-68
2022/07/16 02:35:44;;;;;;;8.43;3.30;;;15.50;99.90;;;;;;5007197;28;20041;-68
2022/07/16 02:38:11;;;;;;;5.53;3.00;;;15.50;99.90;;;;;;5008444;28;20155;-68
2022/07/16 02:40:38;;;;;;;6.38;3.40;;;15.50;99.90;;;;;;5014514;28;20049;-68
2022/07/16 02:43:06;;;;;;;6.90;3.50;;;15.50;99.90;;;;;;5012376;28;20484;-68
2022/07/16 02:45:33;;;;;;;6.60;3.40;;;15.50;99.90;;;;;;5013918;28;20523;-68
2022/07/16 02:47:59;;;;;;;6.03;3.28;;;15.50;99.90;;;;;;5012897;28;20034;-69
2022/07/16 02:50:25;;;;;;;5.55;3.38;;;15.60;99.90;;;;;;5008361;28;20057;-68
2022/07/16 02:52:51;;;;;;;5.35;3.10;;;15.60;99.90;;;;;;5012368;28;20037;-68
2022/07/16 02:55:17;;;;;;;6.32;3.33;;;15.50;99.90;;;;;;5015704;28;20044;-68
2022/07/16 02:57:43;;;;;;;5.95;3.40;;;15.50;99.90;;;;;;5015709;28;20431;-68
2022/07/16 03:00:11;;;;;;;4.90;3.13;;;15.50;99.90;;;;;;5012687;28;20033;-68
2022/07/16 03:02:37;;;;;;;5.75;3.35;;;15.50;99.90;;;;;;5004410;28;20049;-67
2022/07/16 03:05:04;;;;;;;5.13;3.05;;;15.60;99.90;;;;;;5008816;28;20180;-68
2022/07/16 03:07:30;;;;;;;5.90;2.95;;;15.50;99.90;;;;;;5021633;28;20116;-68
2022/07/16 03:09:55;;;;;;;4.22;2.83;;;15.50;99.90;;;;;;5019154;28;20141;-69
2022/07/16 03:12:21;;;;;;;6.20;3.47;;;15.50;99.90;;;;;;5026576;28;20498;-69
2022/07/16 03:14:47;;;;;;;4.45;3.13;;;15.50;99.90;;;;;;5007204;28;20404;-69
2022/07/16 03:17:13;;;;;;;5.78;3.05;;;15.50;99.90;;;;;;5021199;28;20448;-69
2022/07/16 03:19:39;;;;;;;4.95;3.35;;;15.50;99.90;;;;;;5022902;28;20030;-68
2022/07/16 03:22:05;;;;;;;5.93;3.63;;;15.40;99.90;;;;;;5010334;28;20044;-69
2022/07/16 03:24:31;;;;;;;5.90;3.08;;;15.40;99.90;;;;;;5007855;28;20041;-69
2022/07/16 03:26:57;;;;;;;5.35;3.10;;;15.40;99.90;;;;;;5024106;28;20029;-69
2022/07/16 03:29:23;;;;;;;5.50;3.40;;;15.30;99.90;;;;;;5008621;28;20132;-69
2022/07/16 03:31:49;;;;;;;6.05;3.78;;;15.30;99.90;;;;;;5008270;28;20032;-69
2022/07/16 03:34:15;;;;;;;6.68;3.67;;;15.20;99.90;;;;;;5008401;28;20030;-68
2022/07/16 03:36:40;;;;;;;5.30;2.92;;;15.10;99.90;;;;;;5018299;28;20033;-69
2022/07/16 03:39:06;;;;;;;6.55;3.65;;;15.10;99.90;;;;;;4997806;28;20030;-69
2022/07/16 03:41:36;;;;;;;7.13;3.90;;;15.10;99.90;;;;;;5005415;28;20030;-68
2022/07/16 03:44:05;;;;;;;5.40;3.85;;;15.00;99.90;;;;;;5021118;28;20515;-68
2022/07/16 03:46:31;;;;;;;7.65;4.20;;;14.90;99.90;;;;;;5007988;28;20634;-69
2022/07/16 03:48:58;;;;;;;6.10;4.05;;;14.80;99.90;;;;;;5010033;28;20025;-69
2022/07/16 03:51:24;;;;;;;5.15;3.90;;;14.70;99.90;;;;;;5011398;28;20029;-69
2022/07/16 03:53:50;;;;;;;7.43;4.55;;;14.60;99.90;;;;;;5015567;28;20121;-70
2022/07/16 03:56:16;;;;;;;6.13;4.57;;;14.60;99.90;;;;;;5014708;28;20034;-69
2022/07/16 03:58:42;;;;;;;5.93;4.00;;;14.60;99.90;;;;;;5010403;28;20136;-70
2022/07/16 04:01:08;;;;;;;7.60;4.55;;;14.60;99.90;;;;;;5013648;28;20140;-68
2022/07/16 04:03:36;;;;;;;6.85;4.40;;;14.50;99.90;;;;;;5011894;28;20107;-70
2022/07/16 04:06:02;;;;;;;6.90;4.65;;;14.40;99.90;;;;;;5007866;28;20404;-69
2022/07/16 04:08:28;;;;;;;6.68;4.85;;;14.30;99.90;;;;;;5006945;28;20233;-69
2022/07/16 04:10:54;;;;;;;7.18;4.53;;;14.20;99.90;;;;;;5020497;28;20560;-68
2022/07/16 04:13:20;;;;;;;7.18;4.55;;;14.20;99.90;;;;;;5015762;28;20117;-69
2022/07/16 04:15:46;;;;;;;6.55;4.30;;;14.20;99.90;;;;;;5006999;28;20044;-68
2022/07/16 04:18:12;;;;;;;8.05;5.05;;;14.20;99.90;;;;;;4985400;28;20026;-69
2022/07/16 04:20:37;;;;;;;6.38;4.50;;;14.20;99.90;;;;;;5004097;28;20444;-69
2022/07/16 04:23:03;;;;;;;8.15;4.85;;;14.20;99.90;;;;;;5011326;28;20046;-69
2022/07/16 04:25:29;;;;;;;7.63;4.85;;;14.20;99.90;;;;;;5000168;28;20037;-69
2022/07/16 04:27:55;;;;;;;8.18;4.82;;;14.00;99.90;;;;;;5007302;28;20034;-69
2022/07/16 04:30:20;;;;;;;6.43;4.88;;;13.90;99.90;;;;;;5006205;28;20045;-69
2022/07/16 04:32:46;;;;;;;8.80;5.40;;;13.90;99.90;;;;;;4987631;28;20038;-69
2022/07/16 04:35:13;;;;;;;7.90;5.18;;;13.90;99.90;;;;;;5013421;28;20034;-69
2022/07/16 04:37:39;;;;;;;7.63;4.80;;;13.90;99.90;;;;;;5021331;28;20766;-69
2022/07/16 04:40:07;;;;;;;6.28;4.28;;;13.90;99.90;;;;;;5004787;28;20087;-69
2022/07/16 04:42:35;;;;;;;7.20;5.07;;;13.90;99.90;;;;;;5011012;28;20034;-68
2022/07/16 04:45:01;;;;;;;6.95;4.78;;;13.90;99.90;;;;;;5006433;28;20053;-68
2022/07/16 04:47:27;;;;;;;6.25;4.45;;;13.80;99.90;;;;;;5013659;28;20034;-67
2022/07/16 04:49:52;;;;;;;5.80;4.55;;;13.80;99.90;;;;;;5009653;28;20026;-68
2022/07/16 04:52:18;;;;;;;7.78;4.57;;;13.80;99.90;;;;;;5011984;28;20034;-68
2022/07/16 04:54:44;;;;;;;6.72;5.15;;;13.80;99.90;;;;;;5012127;28;20056;-70
2022/07/16 04:57:09;;;;;;;7.78;4.97;;;13.90;99.90;;;;;;5019079;28;20124;-70
2022/07/16 04:59:35;;;;;;;6.72;5.50;;;13.90;99.90;;;;;;5021260;28;20124;-67
2022/07/16 05:04:46;;;;;;;7.07;5.28;;;13.90;99.90;;;;;;5016978;28;20043;-70
2022/07/16 05:07:11;;;;;;;6.60;4.85;;;13.90;99.90;;;;;;5015644;28;20041;-68
2022/07/16 05:09:37;;;;;;;8.32;5.13;;;13.90;99.90;;;;;;5013537;28;20026;-69
2022/07/16 05:12:03;;;;;;;7.43;5.30;;;13.90;99.90;;;;;;5018436;28;20042;-69
2022/07/16 05:14:28;;;;;;;7.55;4.82;;;13.90;99.90;;;;;;5010268;28;20088;-69
2022/07/16 05:16:56;;;;;;;7.15;4.70;;;13.90;99.90;;;;;;5014897;28;20025;-69
2022/07/16 05:19:22;;;;;;;6.55;4.22;;;14.00;99.90;;;;;;5029021;28;20427;-69
2022/07/16 05:21:48;;;;;;;7.88;5.05;;;14.10;99.90;;;;;;5009274;28;20033;-69
2022/07/16 05:24:14;;;;;;;7.75;4.70;;;14.20;99.90;;;;;;5020733;28;20048;-69
2022/07/16 05:26:39;;;;;;;7.80;5.35;;;14.20;99.90;;;;;;5018371;28;20092;-68
2022/07/16 05:29:05;;;;;;;6.47;5.00;;;14.30;99.90;;;;;;4999875;28;20044;-69
2022/07/16 05:31:31;;;;;;;7.38;4.47;;;14.40;99.90;;;;;;5015719;28;20037;-69
2022/07/16 05:33:57;;;;;;;8.02;4.82;;;14.50;99.90;;;;;;5008762;28;20076;-69
2022/07/16 05:36:23;;;;;;;6.88;4.20;;;14.50;99.90;;;;;;5011218;28;20117;-69
2022/07/16 05:38:48;;;;;;;6.60;4.45;;;14.60;99.90;;;;;;5019383;28;20054;-69
2022/07/16 05:41:14;;;;;;;6.93;4.47;;;14.60;99.90;;;;;;5023952;28;20033;-69
2022/07/16 05:43:40;;;;;;;6.20;4.63;;;14.60;99.90;;;;;;5009691;28;20133;-69
2022/07/16 05:46:05;;;;;;;5.70;4.20;;;14.60;99.90;;;;;;4996628;28;20119;-69
2022/07/16 05:48:31;;;;;;;6.47;4.43;;;14.70;99.90;;;;;;5015845;28;20030;-69
2022/07/16 05:50:57;;;;;;;7.00;4.65;;;14.80;99.90;;;;;;5002069;28;20026;-69
2022/07/16 05:53:22;;;;;;;6.80;3.95;;;14.80;99.90;;;;;;5017729;28;20381;-69
2022/07/16 05:55:48;;;;;;;6.07;4.32;;;14.80;99.90;;;;;;5012255;28;20120;-68
2022/07/16 05:58:14;;;;;;;5.22;3.83;;;15.00;99.90;;;;;;4991177;28;20049;-68
2022/07/16 06:00:40;;;;;;;5.95;3.58;;;15.00;99.90;;;;;;4999584;28;20712;-68
2022/07/16 06:03:07;;;;;;;5.80;3.60;;;15.00;99.90;;;;;;4979804;28;20561;-68
2022/07/16 06:05:33;;;;;;;5.47;3.40;;;15.10;99.90;;;;;;5007831;28;20038;-67
2022/07/16 06:07:59;;;;;;;8.27;3.50;;;15.20;99.90;;;;;;5005478;28;20091;-67
2022/07/16 06:10:25;;;;;;;5.47;3.35;;;15.20;99.90;;;;;;5004760;28;20439;-68
2022/07/16 06:12:50;;;;;;;4.80;3.20;;;15.20;99.90;;;;;;5007983;28;20084;-69
2022/07/16 06:15:16;;;;;;;5.28;3.10;;;15.30;99.90;;;;;;5001892;28;20042;-68
2022/07/16 06:17:42;;;;;;;6.72;2.95;;;15.40;99.90;;;;;;5015899;28;20080;-70
2022/07/16 06:20:09;;;;;;;5.57;2.97;;;15.40;99.90;;;;;;5014713;28;20453;-68
2022/07/16 06:22:35;;;;;;;4.90;2.80;;;15.60;99.90;;;;;;5020205;28;20042;-69
2022/07/16 06:25:00;;;;;;;5.15;2.90;;;15.60;99.90;;;;;;4993762;28;20162;-68
2022/07/16 06:27:26;;;;;;;6.70;3.10;;;15.70;99.90;;;;;;5008701;28;20057;-69
2022/07/16 06:29:52;;;;;;;4.13;2.80;;;15.80;99.90;;;;;;5004915;28;20022;-69
2022/07/16 06:32:18;;;;;;;4.53;2.80;;;15.90;99.90;;;;;;5005427;28;20033;-71
2022/07/16 06:34:43;;;;;;;4.20;2.50;;;16.00;99.90;;;;;;4998962;28;20052;-69
2022/07/16 06:37:09;;;;;;;4.45;2.60;;;16.10;99.90;;;;;;5004192;28;20148;-69
2022/07/16 06:39:35;;;;;;;6.50;2.40;;;16.10;99.90;;;;;;5007409;28;20062;-68
2022/07/16 06:42:01;;;;;;;4.15;2.38;;;16.20;99.90;;;;;;5009017;28;20037;-68
2022/07/16 06:44:26;;;;;;;5.40;2.38;;;16.30;99.90;;;;;;5006148;28;20121;-68
2022/07/16 06:46:53;;;;;;;5.45;2.00;;;16.40;99.90;;;;;;5005891;28;20032;-69
2022/07/16 06:49:20;;;;;;;4.38;2.13;;;16.50;99.90;;;;;;5000683;28;20641;-69
2022/07/16 06:51:45;;;;;;;3.78;2.10;;;16.60;99.90;;;;;;5006405;28;20034;-67
2022/07/16 06:54:11;;;;;;;4.55;2.40;;;16.70;99.90;;;;;;5007912;28;20046;-68
2022/07/16 06:56:37;;;;;;;4.25;2.50;;;16.80;99.90;;;;;;5007756;28;20022;-69
2022/07/16 06:59:03;;;;;;;3.78;2.17;;;16.80;99.90;;;;;;5008273;28;20033;-70
2022/07/16 07:01:29;;;;;;;5.03;2.08;;;16.90;99.90;;;;;;5008432;28;20105;-68
2022/07/16 07:03:55;;;;;;;3.80;1.98;;;17.00;99.90;;;;;;5002939;28;20034;-69
2022/07/16 07:06:20;;;;;;;5.50;2.05;;;17.10;99.90;;;;;;5008043;28;20107;-69
2022/07/16 07:08:47;;;;;;;4.13;2.25;;;17.20;99.90;;;;;;5007172;28;20026;-69
2022/07/16 07:11:12;;;;;;;5.10;2.08;;;17.30;99.90;;;;;;5008878;28;20033;-68
2022/07/16 07:13:38;;;;;;;3.65;2.00;;;17.40;99.90;;;;;;5004161;28;20042;-69
2022/07/16 07:16:05;;;;;;;3.60;1.65;;;17.60;99.90;;;;;;5008805;28;20037;-68
2022/07/16 07:18:31;;;;;;;3.60;1.90;;;17.70;99.90;;;;;;4988338;28;20029;-69
2022/07/16 07:20:58;;;;;;;3.40;1.90;;;17.80;99.90;;;;;;4988878;28;20030;-69
2022/07/16 07:23:24;;;;;;;3.30;1.65;;;18.00;99.90;;;;;;5007119;28;20120;-68
2022/07/16 07:25:50;;;;;;;3.03;1.50;;;18.20;99.90;;;;;;5006404;28;20140;-69
2022/07/16 07:28:16;;;;;;;3.92;1.65;;;18.40;99.90;;;;;;5007539;28;20117;-69
2022/07/16 07:30:41;;;;;;;3.33;1.33;;;18.50;99.90;;;;;;5006592;28;20038;-69
2022/07/16 07:33:07;;;;;;;3.85;1.50;;;18.60;99.90;;;;;;5008170;28;20034;-69
2022/07/16 07:35:33;;;;;;;4.45;1.48;;;18.80;99.90;;;;;;5004787;28;20030;-69
2022/07/16 07:37:59;;;;;;;2.10;1.20;;;18.90;99.90;;;;;;5005940;28;20097;-69
2022/07/16 07:40:25;;;;;;;2.95;1.42;;;19.10;99.90;;;;;;5004345;28;20030;-69
2022/07/16 07:42:50;;;;;;;2.90;1.30;;;19.20;99.90;;;;;;5004611;28;20468;-69
2022/07/16 07:45:16;;;;;;;2.85;1.35;;;19.30;99.90;;;;;;4986607;28;20038;-70
2022/07/16 07:47:42;;;;;;;3.33;1.50;;;19.40;99.90;;;;;;5000882;28;20034;-70
2022/07/16 07:50:09;;;;;;;3.75;1.42;;;19.50;99.90;;;;;;5004821;28;20033;-69
2022/07/16 07:52:35;;;;;;;6.00;1.50;;;19.70;99.90;;;;;;4986931;28;20124;-70
2022/07/16 07:55:01;;;;;;;3.50;1.80;;;19.80;99.90;;;;;;5004756;28;20473;-69
2022/07/16 07:57:26;;;;;;;3.33;1.48;;;19.90;99.90;;;;;;4997877;28;20029;-71
2022/07/16 07:59:52;;;;;;;2.53;1.30;;;20.00;99.90;;;;;;5026581;28;20522;-70
2022/07/16 08:02:18;;;;;;;3.75;1.63;;;20.00;99.90;;;;;;5011549;28;20116;-69
2022/07/16 08:04:44;;;;;;;3.13;1.20;;;20.20;99.90;;;;;;5006071;28;20038;-70
2022/07/16 08:07:10;;;;;;;3.20;1.25;;;20.30;99.90;;;;;;4994409;28;20061;-69
2022/07/16 08:09:36;;;;;;;4.30;1.38;;;20.40;99.60;;;;;;5010245;28;20040;-69
2022/07/16 08:12:02;;;;;;;4.38;1.30;;;20.40;99.40;;;;;;5006711;28;20084;-69
2022/07/16 08:14:28;;;;;;;2.95;1.20;;;20.50;99.60;;;;;;5007268;28;20041;-69
2022/07/16 08:16:55;;;;;;;2.78;1.30;;;20.70;98.40;;;;;;4992468;28;20033;-69
2022/07/16 08:19:21;;;;;;;3.08;1.67;;;20.90;98.30;;;;;;5010492;28;20028;-68
2022/07/16 08:21:47;;;;;;;4.20;1.35;;;20.90;98.40;;;;;;5006076;28;20038;-68
2022/07/16 08:26:57;;;;;;;5.60;1.60;;;21.10;98.00;;;;;;5002067;28;20095;-69
2022/07/16 08:29:24;;;;;;;3.83;1.50;;;21.10;98.30;;;;;;5009813;28;20034;-68
2022/07/16 08:31:49;;;;;;;3.22;1.17;;;21.20;97.20;;;;;;4990592;28;20111;-69
2022/07/16 08:34:15;;;;;;;3.05;1.13;;;21.20;97.80;;;;;;5005963;28;20094;-70
2022/07/16 08:36:41;;;;;;;3.55;1.48;;;21.30;97.60;;;;;;5006477;28;20030;-70
2022/07/16 08:39:07;;;;;;;4.25;1.48;;;21.60;97.80;;;;;;5005911;28;20080;-69
2022/07/16 08:41:35;;;;;;;4.00;1.30;;;21.70;96.60;;;;;;5008177;28;20034;-69
2022/07/16 08:44:01;;;;;;;3.20;1.50;;;21.70;96.30;;;;;;4998499;28;20096;-69
2022/07/16 08:46:28;;;;;;;4.68;1.40;;;21.70;95.60;;;;;;5007862;28;20046;-68
2022/07/16 08:48:54;;;;;;;3.65;1.30;;;21.80;95.00;;;;;;5007557;28;20071;-70
2022/07/16 08:51:32;;;;;;;3.47;1.20;;;21.70;96.20;;;;;;5006962;28;20030;-69
2022/07/16 08:54:04;;;;;;;2.40;1.17;;;21.80;96.10;;;;;;5008220;28;20064;-69
2022/07/16 08:56:30;;;;;;;3.15;1.20;;;21.90;95.60;;;;;;4990510;28;20057;-69
2022/07/16 08:58:56;;;;;;;3.22;1.20;;;21.90;96.10;;;;;;4990335;28;20034;-68
2022/07/16 09:01:25;;;;;;;2.45;1.30;;;22.10;94.10;;;;;;5006802;28;20052;-68
2022/07/16 09:03:51;;;;;;;2.50;1.40;;;22.20;94.80;;;;;;5005426;28;20034;-69
2022/07/16 09:06:19;;;;;;;3.38;1.30;;;22.40;94.30;;;;;;5024175;28;20033;-69
2022/07/16 09:08:44;;;;;;;3.15;1.40;;;22.50;94.00;;;;;;5006033;28;20029;-70
2022/07/16 09:11:37;;;;;;;3.92;1.35;;;22.50;93.10;;;;;;5007799;28;20030;-69
2022/07/16 09:14:07;;;;;;;2.58;1.33;;;22.60;94.20;;;;;;5004423;28;20046;-69
2022/07/16 09:16:39;;;;;;;3.45;1.20;;;22.70;93.30;;;;;;5002699;28;20029;-70
2022/07/16 09:19:15;;;;;;;2.85;1.17;;;22.80;94.30;;;;;;5007644;28;20121;-69
2022/07/16 09:22:00;;;;;;;5.88;1.52;;;22.90;93.00;;;;;;5005250;28;20032;-69
2022/07/16 09:24:57;;;;;;;4.20;1.45;;;22.90;91.90;;;;;;5006471;28;20041;-70
2022/07/16 09:27:25;;;;;;;3.58;1.35;;;22.90;93.70;;;;;;5002038;28;20034;-70
2022/07/16 09:29:58;;;;;;;3.63;1.45;;;23.00;92.40;;;;;;4999615;28;20030;-70
2022/07/16 09:32:34;;;;;;;4.40;1.40;;;23.00;92.60;;;;;;5005228;28;20038;-70
2022/07/16 09:35:10;;;;;;;3.75;1.63;;;23.00;91.70;;;;;;4989687;28;20125;-69
2022/07/16 09:37:54;;;;;;;2.47;1.23;;;23.10;92.00;;;;;;5027143;28;20073;-70
2022/07/16 09:40:39;;;;;;;4.57;1.52;;;23.00;91.40;;;;;;5023046;28;20033;-71
2022/07/16 09:43:18;;;;;;;2.15;1.20;;;23.10;91.70;;;;;;5014014;28;20038;-71
2022/07/16 09:45:58;;;;;;;3.10;1.35;;;23.20;91.20;;;;;;5006552;28;20041;-72
2022/07/16 09:48:29;;;;;;;3.38;1.60;;;23.20;89.10;;;;;;5020970;28;20033;-71
2022/07/16 09:51:11;;;;;;;4.20;1.52;;;23.20;90.90;;;;;;5008980;28;20066;-71
2022/07/16 09:53:40;;;;;;;3.65;1.30;;;23.20;91.10;;;;;;5007490;28;20484;-71
2022/07/16 09:56:08;;;;;;;3.95;1.50;;;23.20;90.40;;;;;;5008215;28;20034;-70
2022/07/16 09:58:35;;;;;;;2.85;1.60;;;23.30;91.20;;;;;;5008979;28;20045;-70
2022/07/16 10:01:03;;;;;;;3.40;1.60;;;23.40;88.00;;;;;;4997312;28;20038;-70
2022/07/16 10:03:30;;;;;;;2.72;1.30;;;23.50;90.20;;;;;;5008371;28;20168;-70
2022/07/16 10:05:56;;;;;;;2.75;1.50;;;23.50;90.50;;;;;;5008903;28;20029;-70
2022/07/16 10:08:22;;;;;;;3.10;1.30;;;23.70;90.70;;;;;;5008641;28;20041;-70
2022/07/16 10:10:48;;;;;;;5.70;1.40;;;23.90;91.10;;;;;;5004872;28;20037;-71
2022/07/16 10:13:16;;;;;;;4.63;1.83;;;24.10;89.10;;;;;;5005984;28;20099;-70
2022/07/16 10:15:42;;;;;;;3.67;1.55;;;24.20;87.70;;;;;;5011852;28;20377;-71
2022/07/16 10:18:36;;;;;;;3.60;1.38;;;24.30;84.50;;;;;;5016281;28;20042;-69
2022/07/16 10:21:05;;;;;;;4.50;1.83;;;24.30;82.30;;;;;;5006082;28;20121;-69
2022/07/16 10:23:32;;;;;;;3.22;1.50;;;24.30;83.50;;;;;;5010072;28;20116;-70
2022/07/16 10:26:08;;;;;;;4.15;1.50;;;24.40;86.80;;;;;;4991034;28;20034;-70
2022/07/16 10:28:39;;;;;;;4.70;1.60;;;24.50;85.00;;;;;;4981180;28;20550;-70
2022/07/16 10:31:30;;;;;;;4.10;1.55;;;24.50;84.20;;;;;;5002552;28;20034;-72
2022/07/16 10:34:16;;;;;;;3.63;1.80;;;24.60;85.00;;;;;;5007150;28;20088;-71
2022/07/16 10:36:53;;;;;;;3.20;1.58;;;24.60;81.40;;;;;;5003018;28;20057;-73
2022/07/16 10:39:20;;;;;;;4.82;1.67;;;24.60;80.80;;;;;;5007103;28;20057;-72
2022/07/16 10:41:48;;;;;;;2.40;1.40;;;24.60;81.20;;;;;;5008882;28;20145;-70
2022/07/16 10:44:14;;;;;;;4.05;1.67;;;24.60;82.00;;;;;;5009390;28;20030;-71
2022/07/16 10:46:52;;;;;;;3.30;1.75;;;24.50;79.80;;;;;;4991375;28;20034;-72
2022/07/16 10:49:18;;;;;;;3.55;1.77;;;24.50;82.10;;;;;;5024309;28;20038;-71
2022/07/16 10:52:03;;;;;;;3.35;1.58;;;24.50;82.40;;;;;;5010315;28;20041;-72
2022/07/16 10:54:35;;;;;;;4.43;1.50;;;24.70;81.70;;;;;;5009728;28;20108;-72
2022/07/16 10:57:06;;;;;;;3.22;1.98;;;24.90;79.60;;;;;;5009541;28;20069;-72
2022/07/16 10:59:37;;;;;;;3.42;1.80;;;25.00;76.80;;;;;;5009366;28;20048;-71
2022/07/16 11:02:09;;;;;;;4.55;1.70;;;25.10;78.20;;;;;;5009056;28;20052;-70
2022/07/16 11:04:40;;;;;;;4.07;1.88;;;25.10;77.60;;;;;;5012275;28;20125;-72
2022/07/16 11:07:10;;;;;;;3.45;1.88;;;25.10;76.90;;;;;;5007450;28;20132;-72
2022/07/16 11:09:42;;;;;;;8.20;1.95;;;25.20;76.60;;;;;;5009039;28;20049;-72
2022/07/16 11:12:29;;;;;;;2.90;1.77;;;25.30;77.40;;;;;;5006910;28;20045;-73
2022/07/16 11:14:56;;;;;;;4.70;1.60;;;25.30;70.80;;;;;;5004854;28;20049;-71
2022/07/16 11:17:25;;;;;;;3.05;1.70;;;25.30;74.20;;;;;;5009053;28;20814;-72
2022/07/16 11:19:55;;;;;;;4.57;1.80;;;25.40;71.50;;;;;;5009114;28;20026;-71
2022/07/16 11:22:23;;;;;;;3.83;1.70;;;25.40;70.10;;;;;;5006287;28;20030;-71
2022/07/16 11:24:58;;;;;;;4.03;1.70;;;25.50;71.70;;;;;;5012666;28;20037;-70
2022/07/16 11:27:38;;;;;;;4.72;1.80;;;25.60;66.60;;;;;;4989278;28;20037;-71
2022/07/16 11:30:10;;;;;;;2.72;1.60;;;25.70;65.60;;;;;;5009565;28;20038;-73
2022/07/16 11:32:43;;;;;;;2.80;1.48;;;26.30;65.30;;;;;;5006924;28;20030;-73
2022/07/16 11:35:09;;;;;;;3.20;1.40;;;26.20;62.30;;;;;;5008636;28;20121;-72
2022/07/16 11:37:51;;;;;;;2.58;1.55;;;26.40;60.10;;;;;;5007863;28;20568;-71
2022/07/16 11:40:16;;;;;;;3.15;1.48;;;26.80;58.90;;;;;;5007578;28;20489;-72
2022/07/16 11:42:42;;;;;;;3.25;1.10;;;26.70;63.20;;;;;;5005043;28;20045;-72
2022/07/16 11:45:09;;;;;;;4.20;1.17;;;26.60;69.30;;;;;;5005986;28;20064;-74
2022/07/16 11:47:35;;;;;;;5.20;1.48;;;26.40;74.20;;;;;;5006321;28;20041;-71
2022/07/16 11:50:01;;;;;;;2.63;1.00;;;26.20;72.10;;;;;;5009056;28;20034;-71
2022/07/16 11:52:27;;;;;;;6.57;1.23;;;26.10;76.30;;;;;;5006542;28;20030;-70
2022/07/16 11:54:58;;;;;;;2.20;1.00;;;26.10;77.70;;;;;;4990078;28;20451;-73
2022/07/16 11:57:24;;;;;;;3.33;1.10;;;26.00;76.50;;;;;;5001868;28;20112;-74
2022/07/16 11:59:52;;;;;;;3.15;1.27;;;26.00;79.30;;;;;;5005314;28;20120;-71
2022/07/16 12:02:24;;;;;;;3.05;1.23;;;26.10;77.60;;;;;;5005361;28;20495;-72
2022/07/16 12:04:51;;;;;;;2.85;1.20;;;26.00;79.70;;;;;;5003671;28;20033;-73
2022/07/16 12:07:24;;;;;;;3.95;1.40;;;25.80;76.90;;;;;;4998581;28;20504;-71
2022/07/16 12:09:51;;;;;;;2.83;1.20;;;25.80;81.70;;;;;;5004867;28;20778;-72
2022/07/16 12:12:24;;;;;;;2.75;1.10;;;26.00;82.60;;;;;;4986342;28;20156;-72
2022/07/16 12:14:52;;;;;;;3.38;1.40;;;26.00;77.10;;;;;;5003764;28;20029;-72
2022/07/16 12:17:32;;;;;;;4.37;1.40;;;25.80;78.90;;;;;;5004282;28;20026;-72
2022/07/16 12:20:07;;;;;;;3.53;1.30;;;25.70;81.50;;;;;;5008632;28;20057;-72
2022/07/16 12:22:42;;;;;;;2.05;1.10;;;25.70;83.10;;;;;;5004563;28;20044;-71
2022/07/16 12:25:22;;;;;;;2.70;1.00;;;25.80;81.00;;;;;;5006464;28;20034;-73
2022/07/16 12:28:00;;;;;;;2.08;0.88;;;25.90;80.40;;;;;;5004206;28;20068;-72
2022/07/16 12:30:51;;;;;;;1.33;0.80;;;25.90;75.50;;;;;;5010628;28;20033;-73
2022/07/16 12:33:22;;;;;;;1.02;0.80;;;25.90;75.90;;;;;;5002428;28;20129;-73
2022/07/16 12:35:58;;;;;;;3.95;1.17;;;25.90;78.20;;;;;;5002274;28;20037;-72
2022/07/16 12:38:44;;;;;;;1.60;0.98;;;26.10;72.90;;;;;;5019620;28;20053;-72
2022/07/16 12:41:13;;;;;;;3.28;1.05;;;26.10;75.20;;;;;;5002865;28;20042;-72
2022/07/16 12:43:39;;;;;;;;;;;26.10;75.80;;;;;;5008458;28;20112;-73
2022/07/16 12:46:07;;;;;;;2.65;1.00;;;26.30;70.80;;;;;;5003767;28;19917;-71
2022/07/16 12:48:50;;;;;;;2.78;0.90;;;26.20;71.30;;;;;;5007018;28;20026;-72
2022/07/16 12:51:20;;;;;;;3.22;1.00;;;26.00;73.30;;;;;;5007511;28;20053;-71
2022/07/16 12:53:47;;;;;;;3.78;1.20;;;25.90;74.80;;;;;;5007668;28;20045;-72
2022/07/16 12:58:58;;;;;;;3.08;0.90;;;26.20;73.50;;;;;;5005870;28;20068;-71
2022/07/16 13:01:25;;;;;;;2.15;0.90;;;26.30;69.90;;;;;;5007288;28;20106;-71